Flight Information

DEPARTURE
KALISPELL, MT
Elevation:
2976
Runways:
12/30 - 3510x75 - ASPH-G
2/20 - 9007x150 - ASPH-G
ATIS:
132.625
Ground:
121.6
Tower:
GLACIER TOWER 124.55
DESTINATION
,
Elevation:
TPA:
1000 (est.)


6351.2 NM71° True-18° Var53° HDG

Flight Plan:
(click to file on line)

1. Type
2. Aircraft Identification
3. Aircraft Type / Special Equipment
4. True Airspeed
kts
5. Departure Airport
(ICAO code)
6. Arriving Airport
(ICAO code)
7. Cruising Altitude
ft
8. Alternate Airport
(ICAO code)
9. Route of Flight
10. Remarks


00:00:00 Departure ATIS: Destination ATIS:

Clearance Limit:
Route:
Altitude: Expect in minutes
Frequency:
Transponder: (7500 Hijack / 7600 Lost Comms / 7700 Emergency)


KGPI 010703Z AUTO 01019G27KT 1 1/4SM -SN OVC027 M06/M09 A2989 RMK AO2 PK WND 02026/0700 P0000 T10611094 TSNO
Time: 2020-04-01T07:03:00Z
1585725742
Winds: 10 @ 19 kts
Gusting:27 kts
Visibility: 1.25 sm
Clouds (AGL): OVC 2700
Temperature: -6.1 C
Dew Point: -9.4 C
Pressure: 29.890747 in Hgbr


Notes:

Data extracted from FAA Digital Chart Supplement. Effective: 0901Z Thursday, Mar 26, 2020 to 0901Z Thursday, May 21, 2020
Current ATIS data is provided courtisy of PilotEdge.